KGZN

Gregory M Simmons Memorial Airport

Cisco, Texas, USA
METAR KGZN 170500Z AUTO 35005KT 10SM OVC016 07/06 A3030 RMK AO2
Observed Flight Rules
Oct-17 @ 05:00 UTC (47 minutes ago) Marginal Visual Flight Rules
Wind Visibility Clouds
350° at 5 knots 10 miles
  • Overcast at 1,600' AGL
Temperatures Readings
Current 7°C / 45°F
Dewpoint 6°C / 43°F
Humidity 93%
Altimeter 30.3" Hg
Pressure 1026 hPa
Elevation 522
METAR KGZN 170500Z AUTO 35005KT 10SM OVC016 07/06 A3030 RMK AO2
Observed Flight Rules
Oct-17 @ 05:00 UTC
(47 minutes ago)
MVFR
Wind Visibility
350° at 5 knots 10 miles
Clouds
  • Overcast at 1,600' AGL
Temperature Dewpoint
7°C / 45°F 6°C / 43°F
Humidity Altimeter Pressure
93% 30.3" Hg 1026 hPa